createdAt,value
2019-02-11T00:01:26.124Z,6.60
2019-02-11T00:03:59.641Z,6.60
2019-02-11T00:06:25.902Z,6.60
2019-02-11T00:08:54.872Z,6.70
2019-02-11T00:11:23.930Z,6.70
2019-02-11T00:13:52.972Z,6.70
2019-02-11T00:16:21.907Z,6.60
2019-02-11T00:18:50.810Z,6.60
2019-02-11T00:21:19.887Z,6.50
2019-02-11T00:23:48.844Z,6.50
2019-02-11T00:26:18.139Z,6.50
2019-02-11T00:28:47.243Z,6.40
2019-02-11T00:31:17.742Z,6.40
2019-02-11T00:33:46.728Z,6.40
2019-02-11T00:36:15.789Z,6.40
2019-02-11T00:38:44.679Z,6.50
2019-02-11T00:41:13.655Z,6.50
2019-02-11T00:43:42.731Z,6.60
2019-02-11T00:46:11.694Z,6.60
2019-02-11T00:48:40.659Z,6.60
2019-02-11T00:51:09.682Z,6.50
2019-02-11T00:53:38.728Z,6.40
2019-02-11T00:56:07.792Z,6.20
2019-02-11T00:58:36.810Z,6.20
2019-02-11T01:01:05.871Z,6.10
2019-02-11T01:03:34.856Z,6.10
2019-02-11T01:06:03.930Z,6.10
2019-02-11T01:08:33.003Z,6.10
2019-02-11T01:11:02.055Z,6.10
2019-02-11T01:13:31.058Z,6.10
2019-02-11T01:16:00.051Z,6.10
2019-02-11T01:18:28.957Z,6.20
2019-02-11T01:20:57.916Z,6.20
2019-02-11T01:23:27.039Z,6.20
2019-02-11T01:25:56.055Z,6.20
2019-02-11T01:28:25.108Z,6.20
2019-02-11T01:30:54.113Z,6.30
2019-02-11T01:33:23.156Z,6.30
2019-02-11T01:35:52.223Z,6.30
2019-02-11T01:38:21.291Z,6.40
2019-02-11T01:40:50.440Z,6.40
2019-02-11T01:43:19.495Z,6.50
2019-02-11T01:45:48.455Z,6.50
2019-02-11T01:48:17.426Z,6.60
2019-02-11T01:50:46.346Z,6.60
2019-02-11T01:53:15.307Z,6.60
2019-02-11T01:55:44.274Z,6.60
2019-02-11T01:58:13.287Z,6.60
2019-02-11T02:00:42.332Z,6.60
2019-02-11T02:03:11.250Z,6.60
2019-02-11T02:05:40.368Z,6.60
2019-02-11T02:08:09.420Z,6.60
2019-02-11T02:10:38.397Z,6.50
2019-02-11T02:13:07.345Z,6.60
2019-02-11T02:15:36.260Z,6.50
2019-02-11T02:18:05.275Z,6.50
2019-02-11T02:20:34.310Z,6.50
2019-02-11T02:23:03.351Z,6.50
2019-02-11T02:25:32.303Z,6.50
2019-02-11T02:28:01.269Z,6.60
2019-02-11T02:30:30.649Z,6.60
2019-02-11T02:32:59.614Z,6.60
2019-02-11T02:35:28.751Z,6.50
2019-02-11T02:37:57.817Z,6.60
2019-02-11T02:40:26.706Z,6.50
2019-02-11T02:42:55.813Z,6.50
2019-02-11T02:45:24.873Z,6.50
2019-02-11T02:47:54.044Z,6.50
2019-02-11T02:50:23.027Z,6.50
2019-02-11T02:52:51.902Z,6.40
2019-02-11T02:55:20.893Z,6.40
2019-02-11T02:57:49.881Z,6.40
2019-02-11T03:00:18.848Z,6.40
2019-02-11T03:02:47.759Z,6.40
2019-02-11T03:05:16.811Z,6.40
2019-02-11T03:07:45.820Z,6.40
2019-02-11T03:10:14.856Z,6.40
2019-02-11T03:12:43.991Z,6.40
2019-02-11T03:15:13.015Z,6.40
2019-02-11T03:17:41.992Z,6.30
2019-02-11T03:20:11.382Z,6.30
2019-02-11T03:22:40.434Z,6.30
2019-02-11T03:25:09.499Z,6.30
2019-02-11T03:27:38.500Z,6.30
2019-02-11T03:30:07.945Z,6.30
2019-02-11T03:32:37.044Z,6.30
2019-02-11T03:35:06.194Z,6.30
2019-02-11T03:37:35.258Z,6.30
2019-02-11T03:40:04.731Z,6.30
2019-02-11T03:42:33.698Z,6.30
2019-02-11T03:45:02.740Z,6.30
2019-02-11T03:47:31.812Z,6.30
2019-02-11T03:50:00.775Z,6.30
2019-02-11T03:52:29.857Z,6.30
2019-02-11T03:54:58.978Z,6.30
2019-02-11T03:57:27.952Z,6.40
2019-02-11T03:59:56.892Z,6.40
2019-02-11T04:02:25.935Z,6.40
2019-02-11T04:04:54.880Z,6.40
2019-02-11T04:07:23.915Z,6.40
2019-02-11T04:09:52.891Z,6.40
2019-02-11T04:12:22.058Z,6.40
2019-02-11T04:14:51.107Z,6.40
2019-02-11T04:17:20.102Z,6.40
2019-02-11T04:19:49.207Z,6.40
2019-02-11T04:22:18.223Z,6.40
2019-02-11T04:24:47.241Z,6.40
2019-02-11T04:27:16.289Z,6.40
2019-02-11T04:29:45.249Z,6.40
2019-02-11T04:32:14.340Z,6.40
2019-02-11T04:34:43.240Z,6.40
2019-02-11T04:37:12.376Z,6.40
2019-02-11T04:39:41.355Z,6.30
2019-02-11T04:42:10.444Z,6.30
2019-02-11T04:44:39.523Z,6.30
2019-02-11T04:47:08.533Z,6.30
2019-02-11T04:49:37.472Z,6.30
2019-02-11T04:52:06.516Z,6.30
2019-02-11T04:54:35.581Z,6.30
2019-02-11T04:57:04.663Z,6.20
2019-02-11T04:59:33.669Z,6.20
2019-02-11T05:02:02.776Z,6.20
2019-02-11T05:04:31.860Z,6.20
2019-02-11T05:07:00.844Z,6.20
2019-02-11T05:09:29.787Z,6.30
2019-02-11T05:11:58.777Z,6.30
2019-02-11T05:14:27.796Z,6.40
2019-02-11T05:16:56.771Z,6.40
2019-02-11T05:19:25.710Z,6.40
2019-02-11T05:21:54.876Z,6.50
2019-02-11T05:24:23.887Z,6.40
2019-02-11T05:26:52.980Z,6.50
2019-02-11T05:29:21.977Z,6.50
2019-02-11T05:31:51.067Z,6.50
2019-02-11T05:34:20.206Z,6.50
2019-02-11T05:36:49.162Z,6.50
2019-02-11T05:39:18.126Z,6.50
2019-02-11T05:41:47.139Z,6.50
2019-02-11T05:44:16.105Z,6.50
2019-02-11T05:46:45.184Z,6.50
2019-02-11T05:49:14.438Z,6.60
2019-02-11T05:51:43.491Z,6.60
2019-02-11T05:54:12.514Z,6.50
2019-02-11T05:56:41.583Z,6.50
2019-02-11T05:59:10.759Z,6.50
2019-02-11T06:01:39.762Z,6.50
2019-02-11T06:04:08.684Z,6.50
2019-02-11T06:06:37.610Z,6.50
2019-02-11T06:09:06.885Z,6.40
2019-02-11T06:11:36.019Z,6.40
2019-02-11T06:14:05.108Z,6.40
2019-02-11T06:16:34.162Z,6.40
2019-02-11T06:19:03.118Z,6.40
2019-02-11T06:21:32.197Z,6.40
2019-02-11T06:24:01.163Z,6.40
2019-02-11T06:26:30.317Z,6.40
2019-02-11T06:28:59.292Z,6.40
2019-02-11T06:31:28.275Z,6.40
2019-02-11T06:33:57.204Z,6.40
2019-02-11T06:36:26.183Z,6.40
2019-02-11T06:38:55.175Z,6.40
2019-02-11T06:41:24.279Z,6.40
2019-02-11T06:43:53.323Z,6.40
2019-02-11T06:46:22.303Z,6.40
2019-02-11T06:48:51.230Z,6.40
2019-02-11T06:51:20.219Z,6.40
2019-02-11T06:53:49.290Z,6.40
2019-02-11T06:56:18.242Z,6.40
2019-02-11T06:58:47.167Z,6.40
2019-02-11T07:01:16.262Z,6.40
2019-02-11T07:03:45.267Z,6.40
2019-02-11T07:06:14.396Z,6.40
2019-02-11T07:08:43.403Z,6.40
2019-02-11T07:11:12.419Z,6.40
2019-02-11T07:13:41.422Z,6.40
2019-02-11T07:16:10.527Z,6.40
2019-02-11T07:18:39.651Z,6.40
2019-02-11T07:21:08.679Z,6.40
2019-02-11T07:23:37.904Z,6.40
2019-02-11T07:26:06.919Z,6.40
2019-02-11T07:28:35.900Z,6.40
2019-02-11T07:31:04.922Z,6.40
2019-02-11T07:33:34.147Z,6.40
2019-02-11T07:36:03.223Z,6.40
2019-02-11T07:38:32.301Z,6.50
2019-02-11T07:41:01.511Z,6.50
2019-02-11T07:43:34.933Z,6.50
2019-02-11T07:46:15.802Z,6.60
2019-02-11T07:48:45.036Z,6.60
2019-02-11T07:51:17.373Z,6.60
2019-02-11T07:53:46.583Z,6.70
2019-02-11T07:56:15.654Z,6.70
2019-02-11T07:58:44.791Z,6.70
2019-02-11T08:01:14.124Z,6.80
2019-02-11T08:03:43.285Z,6.90
2019-02-11T08:06:12.416Z,6.90
2019-02-11T08:08:41.552Z,7.00
2019-02-11T08:11:12.448Z,7.00
2019-02-11T08:13:41.731Z,7.10
2019-02-11T08:16:10.892Z,7.10
2019-02-11T08:18:39.993Z,7.20
2019-02-11T08:21:09.205Z,7.20
2019-02-11T08:23:38.363Z,7.20
2019-02-11T08:26:07.605Z,7.30
2019-02-11T08:28:36.828Z,7.30
2019-02-11T08:31:06.223Z,7.30
2019-02-11T08:33:35.411Z,7.30
2019-02-11T08:36:04.727Z,7.30
2019-02-11T08:38:34.009Z,7.30
2019-02-11T08:41:03.226Z,7.30
2019-02-11T08:43:32.630Z,7.30
2019-02-11T08:46:02.064Z,7.30
2019-02-11T08:48:31.394Z,7.30
2019-02-11T08:51:00.755Z,7.10
2019-02-11T08:53:29.964Z,7.00
2019-02-11T08:55:59.137Z,6.80
2019-02-11T08:58:28.586Z,6.80
2019-02-11T09:00:57.887Z,6.80
2019-02-11T09:03:27.184Z,6.80
2019-02-11T09:05:56.477Z,6.80
2019-02-11T09:08:25.775Z,6.90
2019-02-11T09:10:56.364Z,7.00
2019-02-11T09:13:25.666Z,7.10
2019-02-11T09:15:55.458Z,7.20
2019-02-11T09:18:24.991Z,7.30
2019-02-11T09:20:54.215Z,7.40
2019-02-11T09:23:23.509Z,7.50
2019-02-11T09:25:52.783Z,7.60
2019-02-11T09:28:21.948Z,7.80
2019-02-11T09:30:51.151Z,7.90
2019-02-11T09:33:20.461Z,8.00
2019-02-11T09:35:49.639Z,8.10
2019-02-11T09:38:18.921Z,8.10
2019-02-11T09:40:48.275Z,8.20
2019-02-11T09:43:17.586Z,8.20
2019-02-11T09:45:46.832Z,8.10
2019-02-11T09:48:16.140Z,8.20
2019-02-11T09:50:47.903Z,8.20
2019-02-11T09:53:17.171Z,8.30
2019-02-11T09:55:46.516Z,8.30
2019-02-11T09:58:15.809Z,8.40
2019-02-11T10:00:45.114Z,8.50
2019-02-11T10:03:14.336Z,8.60
2019-02-11T10:05:43.524Z,8.60
2019-02-11T10:08:13.041Z,8.70
2019-02-11T10:10:42.346Z,8.70
2019-02-11T10:13:11.604Z,8.90
2019-02-11T10:15:40.847Z,8.90
2019-02-11T10:18:10.004Z,8.90
2019-02-11T10:20:39.364Z,9.00
2019-02-11T10:23:08.676Z,9.10
2019-02-11T10:25:37.971Z,9.20
2019-02-11T10:28:12.094Z,9.40
2019-02-11T10:30:41.815Z,9.60
2019-02-11T10:33:11.004Z,9.90
2019-02-11T10:35:42.362Z,10.10
2019-02-11T10:38:11.136Z,10.30
2019-02-11T10:40:40.263Z,10.50
2019-02-11T10:43:09.439Z,10.60
2019-02-11T10:45:38.683Z,10.90
2019-02-11T10:48:07.960Z,11.00
2019-02-11T10:50:37.303Z,11.20
2019-02-11T10:53:06.567Z,11.30
2019-02-11T10:55:35.911Z,11.40
2019-02-11T10:58:05.142Z,11.60
2019-02-11T11:00:35.020Z,11.70
2019-02-11T11:03:05.409Z,11.80
2019-02-11T11:05:34.805Z,12.00
2019-02-11T11:08:04.017Z,12.20
2019-02-11T11:10:34.644Z,12.20
2019-02-11T11:13:03.979Z,12.20
2019-02-11T11:15:33.296Z,12.30
2019-02-11T11:18:02.878Z,12.50
2019-02-11T11:20:31.999Z,12.70
2019-02-11T11:23:01.203Z,12.50
2019-02-11T11:25:30.513Z,12.70
2019-02-11T11:27:59.712Z,12.90
2019-02-11T11:30:29.037Z,12.90
2019-02-11T11:32:58.229Z,13.00
2019-02-11T11:35:27.367Z,13.00
2019-02-11T11:37:56.413Z,13.20
2019-02-11T11:40:26.484Z,13.20
2019-02-11T11:42:55.664Z,13.00
2019-02-11T11:45:24.712Z,13.00
2019-02-11T11:47:53.816Z,13.10
2019-02-11T11:50:22.883Z,13.30
2019-02-11T11:52:51.945Z,13.50
2019-02-11T11:55:21.434Z,13.70
2019-02-11T11:57:50.656Z,13.90
2019-02-11T12:00:22.063Z,14.00
2019-02-11T12:03:01.483Z,14.00
2019-02-11T12:05:22.597Z,14.10
2019-02-11T12:07:52.269Z,14.20
2019-02-11T12:10:21.558Z,14.40
2019-02-11T12:12:50.759Z,14.30
2019-02-11T12:15:22.328Z,14.40
2019-02-11T12:17:51.611Z,14.50
2019-02-11T12:20:21.090Z,14.30
2019-02-11T12:22:50.371Z,14.20
2019-02-11T12:25:19.573Z,14.10
2019-02-11T12:27:49.463Z,13.90
2019-02-11T12:30:23.628Z,13.80
2019-02-11T12:32:54.678Z,13.70
2019-02-11T12:35:24.159Z,13.80
2019-02-11T12:37:53.384Z,14.00
2019-02-11T12:40:22.809Z,14.10
2019-02-11T12:42:53.434Z,14.00
2019-02-11T12:45:24.309Z,13.90
2019-02-11T12:47:53.764Z,13.90
2019-02-11T12:50:23.069Z,13.80
2019-02-11T12:52:52.391Z,14.20
2019-02-11T12:55:21.842Z,14.50
2019-02-11T12:57:51.178Z,14.60
2019-02-11T13:00:21.768Z,14.80
2019-02-11T13:02:51.597Z,15.10
2019-02-11T13:05:23.533Z,15.20
2019-02-11T13:07:52.069Z,15.20
2019-02-11T13:10:21.397Z,15.10
2019-02-11T13:12:50.855Z,15.20
2019-02-11T13:15:53.314Z,14.90
2019-02-11T13:17:51.441Z,14.60
2019-02-11T13:20:21.320Z,14.30
2019-02-11T13:22:50.575Z,14.60
2019-02-11T13:25:19.802Z,14.50
2019-02-11T13:27:49.033Z,14.90
2019-02-11T13:30:19.887Z,14.90
2019-02-11T13:32:49.243Z,14.90
2019-02-11T13:35:18.539Z,15.00
2019-02-11T13:37:47.799Z,15.00
2019-02-11T13:40:17.148Z,15.20
2019-02-11T13:42:46.446Z,15.40
2019-02-11T13:45:17.750Z,15.30
2019-02-11T13:47:57.736Z,15.10
2019-02-11T13:50:21.160Z,15.20
2019-02-11T13:52:51.427Z,15.20
2019-02-11T13:55:21.193Z,15.30
2019-02-11T13:57:50.916Z,15.30
2019-02-11T14:00:34.915Z,15.30
2019-02-11T14:03:05.456Z,15.50
2019-02-11T14:05:35.103Z,15.60
2019-02-11T14:08:05.233Z,15.50
2019-02-11T14:10:34.985Z,15.40
2019-02-11T14:13:05.143Z,15.20
2019-02-11T14:15:34.575Z,15.30
2019-02-11T14:18:13.390Z,15.40
2019-02-11T14:20:40.035Z,15.50
2019-02-11T14:23:09.217Z,15.40
2019-02-11T14:25:44.895Z,15.70
2019-02-11T14:28:10.698Z,15.60
2019-02-11T14:30:51.125Z,15.50
2019-02-11T14:33:24.048Z,15.70
2019-02-11T14:35:53.658Z,16.00
2019-02-11T14:38:22.858Z,16.00
2019-02-11T14:40:52.353Z,16.20
2019-02-11T14:43:21.611Z,16.20
2019-02-11T14:45:50.858Z,16.30
2019-02-11T14:48:27.408Z,16.50
2019-02-11T14:50:51.028Z,16.40
2019-02-11T14:53:20.396Z,16.20
2019-02-11T14:55:49.699Z,16.30
2019-02-11T14:58:18.942Z,16.30
2019-02-11T15:00:48.132Z,16.20
2019-02-11T15:03:17.360Z,15.70
2019-02-11T15:05:46.480Z,15.70
2019-02-11T15:08:15.730Z,15.70
2019-02-11T15:10:44.940Z,15.80
2019-02-11T15:13:14.325Z,15.60
2019-02-11T15:15:43.520Z,15.70
2019-02-11T15:18:12.743Z,15.30
2019-02-11T15:20:41.931Z,15.30
2019-02-11T15:23:11.143Z,15.30
2019-02-11T15:25:42.048Z,15.20
2019-02-11T15:28:12.087Z,15.40
2019-02-11T15:30:41.341Z,15.20
2019-02-11T15:33:10.772Z,14.80
2019-02-11T15:35:45.337Z,14.60
2019-02-11T15:38:20.307Z,14.50
2019-02-11T15:40:49.667Z,14.20
2019-02-11T15:43:18.870Z,13.80
2019-02-11T15:45:48.132Z,13.50
2019-02-11T15:48:17.417Z,13.30
2019-02-11T15:50:46.725Z,13.00
2019-02-11T15:53:15.958Z,12.80
2019-02-11T15:55:45.331Z,12.70
2019-02-11T15:58:14.555Z,12.40
2019-02-11T16:00:43.719Z,12.10
2019-02-11T16:03:12.992Z,11.80
2019-02-11T16:05:49.467Z,11.50
2019-02-11T16:08:13.252Z,11.30
2019-02-11T16:10:42.710Z,11.20
2019-02-11T16:13:12.170Z,11.00
2019-02-11T16:15:41.386Z,11.00
2019-02-11T16:18:10.571Z,10.80
2019-02-11T16:20:39.829Z,10.60
2019-02-11T16:23:09.071Z,10.50
2019-02-11T16:25:38.387Z,10.50
2019-02-11T16:28:07.677Z,10.50
2019-02-11T16:30:36.839Z,10.40
2019-02-11T16:33:06.094Z,10.30
2019-02-11T16:35:35.295Z,10.20
2019-02-11T16:38:04.420Z,10.00
2019-02-11T16:40:33.525Z,9.90
2019-02-11T16:43:02.687Z,9.90
2019-02-11T16:45:31.888Z,9.80
2019-02-11T16:48:01.146Z,9.60
2019-02-11T16:50:30.515Z,9.50
2019-02-11T16:52:59.723Z,9.40
2019-02-11T16:55:29.108Z,9.30
2019-02-11T16:57:58.134Z,9.20
2019-02-11T17:00:27.202Z,9.10
2019-02-11T17:02:56.300Z,9.00
2019-02-11T17:05:25.452Z,8.80
2019-02-11T17:07:54.508Z,8.70
2019-02-11T17:10:23.950Z,8.70
2019-02-11T17:12:52.947Z,8.70
2019-02-11T17:15:22.011Z,8.60
2019-02-11T17:17:51.141Z,8.50
2019-02-11T17:20:20.247Z,8.40
2019-02-11T17:22:49.247Z,8.30
2019-02-11T17:25:18.238Z,8.30
2019-02-11T17:27:47.372Z,8.20
2019-02-11T17:30:19.159Z,8.20
2019-02-11T17:32:48.200Z,8.10
2019-02-11T17:35:17.287Z,8.00
2019-02-11T17:37:46.362Z,7.90
2019-02-11T17:40:15.470Z,7.90
2019-02-11T17:42:44.471Z,7.90
2019-02-11T17:45:15.797Z,7.90
2019-02-11T17:47:44.889Z,7.80
2019-02-11T17:50:14.135Z,7.80
2019-02-11T17:52:43.227Z,7.70
2019-02-11T17:55:12.819Z,7.70
2019-02-11T17:57:41.895Z,7.70
2019-02-11T18:00:17.779Z,7.70
2019-02-11T18:02:46.792Z,7.60
2019-02-11T18:05:15.951Z,7.50
2019-02-11T18:07:45.041Z,7.50
2019-02-11T18:10:13.998Z,7.50
2019-02-11T18:12:43.024Z,7.40
2019-02-11T18:15:12.083Z,7.30
2019-02-11T18:17:41.165Z,7.30
2019-02-11T18:20:10.209Z,7.20
2019-02-11T18:22:39.243Z,7.20
2019-02-11T18:25:08.365Z,7.20
2019-02-11T18:27:37.437Z,7.10
2019-02-11T18:30:07.493Z,7.00
2019-02-11T18:32:36.515Z,7.00
2019-02-11T18:35:07.488Z,7.00
2019-02-11T18:37:36.563Z,6.90
2019-02-11T18:40:06.399Z,6.90
2019-02-11T18:42:35.386Z,6.80
2019-02-11T18:45:05.229Z,6.80
2019-02-11T18:47:34.327Z,6.80
2019-02-11T18:50:03.430Z,6.70
2019-02-11T18:52:32.311Z,6.70
2019-02-11T18:55:01.386Z,6.60
2019-02-11T18:57:30.484Z,6.60
2019-02-11T18:59:59.559Z,6.60
2019-02-11T19:02:28.599Z,6.50
2019-02-11T19:04:57.676Z,6.50
2019-02-11T19:07:26.627Z,6.50
2019-02-11T19:09:55.682Z,6.50
2019-02-11T19:12:24.622Z,6.50
2019-02-11T19:14:53.567Z,6.50
2019-02-11T19:17:22.633Z,6.50
2019-02-11T19:19:51.691Z,6.40
2019-02-11T19:22:22.320Z,6.40
2019-02-11T19:24:51.476Z,6.40
2019-02-11T19:27:20.388Z,6.40
2019-02-11T19:29:49.380Z,6.40
2019-02-11T19:32:18.355Z,6.30
2019-02-11T19:34:47.456Z,6.30
2019-02-11T19:37:16.439Z,6.30
2019-02-11T19:39:45.451Z,6.30
2019-02-11T19:42:14.500Z,6.30
2019-02-11T19:44:43.577Z,6.30
2019-02-11T19:47:12.660Z,6.30
2019-02-11T19:49:41.723Z,6.20
2019-02-11T19:52:10.824Z,6.20
2019-02-11T19:54:39.892Z,6.20
2019-02-11T19:57:08.892Z,6.20
2019-02-11T19:59:37.811Z,6.20
2019-02-11T20:02:06.900Z,6.20
2019-02-11T20:04:36.075Z,6.20
2019-02-11T20:07:05.119Z,6.20
2019-02-11T20:09:34.095Z,6.10
2019-02-11T20:12:03.242Z,6.10
2019-02-11T20:14:32.225Z,6.10
2019-02-11T20:17:01.335Z,6.10
2019-02-11T20:19:30.463Z,6.10
2019-02-11T20:21:59.517Z,6.10
2019-02-11T20:24:28.600Z,6.10
2019-02-11T20:26:57.568Z,6.10
2019-02-11T20:29:26.643Z,6.00
2019-02-11T20:31:55.608Z,6.00
2019-02-11T20:34:25.189Z,6.00
2019-02-11T20:36:54.524Z,6.00
2019-02-11T20:39:23.522Z,6.00
2019-02-11T20:41:52.547Z,6.00
2019-02-11T20:44:21.603Z,6.00
2019-02-11T20:46:50.677Z,6.00
2019-02-11T20:49:19.723Z,6.00
2019-02-11T20:51:48.790Z,6.00
2019-02-11T20:54:17.871Z,6.00
2019-02-11T20:56:46.794Z,6.00
2019-02-11T20:59:15.740Z,6.00
2019-02-11T21:01:44.877Z,6.00
2019-02-11T21:04:13.908Z,6.00
2019-02-11T21:06:42.988Z,6.00
2019-02-11T21:09:12.052Z,6.00
2019-02-11T21:11:41.031Z,6.00
2019-02-11T21:14:10.099Z,6.10
2019-02-11T21:16:39.178Z,6.10
2019-02-11T21:19:08.212Z,6.10
2019-02-11T21:21:37.199Z,6.10
2019-02-11T21:24:06.296Z,6.10
2019-02-11T21:26:35.391Z,6.10
2019-02-11T21:29:04.451Z,6.10
2019-02-11T21:31:33.491Z,6.00
2019-02-11T21:34:02.579Z,6.00
2019-02-11T21:36:31.642Z,6.00
2019-02-11T21:39:00.670Z,6.00
2019-02-11T21:41:29.587Z,6.00
2019-02-11T21:43:58.596Z,6.00
2019-02-11T21:46:27.652Z,6.00
2019-02-11T21:48:56.794Z,5.90
2019-02-11T21:51:25.839Z,6.00
2019-02-11T21:53:54.834Z,6.00
2019-02-11T21:56:23.856Z,6.00
2019-02-11T21:58:52.914Z,6.00
2019-02-11T22:01:21.907Z,6.00
2019-02-11T22:03:51.004Z,6.10
2019-02-11T22:06:20.111Z,6.10
2019-02-11T22:08:49.212Z,6.10
2019-02-11T22:11:18.098Z,6.10
2019-02-11T22:13:47.147Z,6.10
2019-02-11T22:16:16.118Z,6.00
2019-02-11T22:18:45.131Z,6.00
2019-02-11T22:21:14.226Z,6.00
2019-02-11T22:23:43.307Z,6.00
2019-02-11T22:26:12.246Z,5.90
2019-02-11T22:28:41.279Z,5.90
2019-02-11T22:31:10.359Z,5.90
2019-02-11T22:33:39.431Z,5.90
2019-02-11T22:36:08.525Z,5.90
2019-02-11T22:38:37.555Z,5.80
2019-02-11T22:41:06.624Z,5.80
2019-02-11T22:43:35.699Z,5.80
2019-02-11T22:46:04.812Z,5.80
2019-02-11T22:48:33.742Z,5.80
2019-02-11T22:51:02.655Z,5.70
2019-02-11T22:53:31.681Z,5.70
2019-02-11T22:56:00.751Z,5.70
2019-02-11T22:58:29.742Z,5.70
2019-02-11T23:01:03.812Z,5.70
2019-02-11T23:03:35.153Z,5.70
2019-02-11T23:06:04.869Z,5.60
2019-02-11T23:08:33.859Z,5.60
2019-02-11T23:11:02.928Z,5.60
2019-02-11T23:13:31.987Z,5.60
2019-02-11T23:16:01.250Z,5.60
2019-02-11T23:18:30.336Z,5.60
2019-02-11T23:20:59.319Z,5.60
2019-02-11T23:23:28.296Z,5.60
2019-02-11T23:25:57.363Z,5.60
2019-02-11T23:28:26.333Z,5.60
2019-02-11T23:30:55.254Z,5.60
2019-02-11T23:33:24.339Z,5.60
2019-02-11T23:35:53.354Z,5.60
2019-02-11T23:38:22.404Z,5.60
2019-02-11T23:40:51.375Z,5.60
2019-02-11T23:43:20.371Z,5.70
2019-02-11T23:45:49.422Z,5.60
2019-02-11T23:48:18.611Z,5.70
2019-02-11T23:50:47.667Z,5.70
2019-02-11T23:53:16.741Z,5.60
2019-02-11T23:55:45.751Z,5.60
2019-02-11T23:58:14.727Z,5.60
